sensor_id;sensor_type;location;lat;lon;timestamp;temperature;humidity
36384;DHT22;22418;51.210;6.976;2023-05-21T00:02:00;14.30;99.90
36384;DHT22;22418;51.210;6.976;2023-05-21T00:04:33;14.30;99.90
36384;DHT22;22418;51.210;6.976;2023-05-21T00:07:03;14.30;99.90
36384;DHT22;22418;51.210;6.976;2023-05-21T00:09:35;14.30;99.90
36384;DHT22;22418;51.210;6.976;2023-05-21T00:12:08;14.30;99.90
36384;DHT22;22418;51.210;6.976;2023-05-21T00:14:38;14.30;99.90
36384;DHT22;22418;51.210;6.976;2023-05-21T00:17:09;14.30;99.90
36384;DHT22;22418;51.210;6.976;2023-05-21T00:19:39;14.20;99.90
36384;DHT22;22418;51.210;6.976;2023-05-21T00:22:10;14.20;99.90
36384;DHT22;22418;51.210;6.976;2023-05-21T00:24:41;14.30;99.90
36384;DHT22;22418;51.210;6.976;2023-05-21T00:27:12;14.20;99.90
36384;DHT22;22418;51.210;6.976;2023-05-21T00:29:42;14.30;99.90
36384;DHT22;22418;51.210;6.976;2023-05-21T00:32:13;14.20;99.90
36384;DHT22;22418;51.210;6.976;2023-05-21T00:34:44;14.20;99.90
36384;DHT22;22418;51.210;6.976;2023-05-21T00:37:14;14.20;99.90
36384;DHT22;22418;51.210;6.976;2023-05-21T00:39:45;14.20;99.90
36384;DHT22;22418;51.210;6.976;2023-05-21T00:42:16;14.20;99.90
36384;DHT22;22418;51.210;6.976;2023-05-21T00:44:48;14.20;99.90
36384;DHT22;22418;51.210;6.976;2023-05-21T00:47:18;14.10;99.90
36384;DHT22;22418;51.210;6.976;2023-05-21T00:49:50;14.10;99.90
36384;DHT22;22418;51.210;6.976;2023-05-21T00:52:22;14.20;99.90
36384;DHT22;22418;51.210;6.976;2023-05-21T00:54:56;14.10;99.90
36384;DHT22;22418;51.210;6.976;2023-05-21T00:57:27;14.10;99.90
36384;DHT22;22418;51.210;6.976;2023-05-21T00:59:58;14.00;99.90
36384;DHT22;22418;51.210;6.976;2023-05-21T01:02:28;14.00;99.90
36384;DHT22;22418;51.210;6.976;2023-05-21T01:05:02;14.00;99.90
36384;DHT22;22418;51.210;6.976;2023-05-21T01:07:37;13.90;99.90
36384;DHT22;22418;51.210;6.976;2023-05-21T01:10:09;13.90;99.90
36384;DHT22;22418;51.210;6.976;2023-05-21T01:12:42;13.90;99.90
36384;DHT22;22418;51.210;6.976;2023-05-21T01:15:13;13.90;99.90
36384;DHT22;22418;51.210;6.976;2023-05-21T01:17:44;14.00;99.90
36384;DHT22;22418;51.210;6.976;2023-05-21T01:20:16;13.90;99.90
36384;DHT22;22418;51.210;6.976;2023-05-21T01:22:53;13.90;99.90
36384;DHT22;22418;51.210;6.976;2023-05-21T01:25:25;13.90;99.90
36384;DHT22;22418;51.210;6.976;2023-05-21T01:27:55;13.80;99.90
36384;DHT22;22418;51.210;6.976;2023-05-21T01:30:27;13.70;99.90
36384;DHT22;22418;51.210;6.976;2023-05-21T01:33:10;13.70;99.90
36384;DHT22;22418;51.210;6.976;2023-05-21T01:36:07;13.70;99.90
36384;DHT22;22418;51.210;6.976;2023-05-21T01:38:42;13.70;99.90
36384;DHT22;22418;51.210;6.976;2023-05-21T01:41:17;13.60;99.90
36384;DHT22;22418;51.210;6.976;2023-05-21T01:43:49;13.70;99.90
36384;DHT22;22418;51.210;6.976;2023-05-21T01:46:22;13.60;99.90
36384;DHT22;22418;51.210;6.976;2023-05-21T01:48:55;13.60;99.90
36384;DHT22;22418;51.210;6.976;2023-05-21T01:51:26;13.50;99.90
36384;DHT22;22418;51.210;6.976;2023-05-21T01:53:57;13.60;99.90
36384;DHT22;22418;51.210;6.976;2023-05-21T01:56:27;13.60;99.90
36384;DHT22;22418;51.210;6.976;2023-05-21T01:58:58;13.50;99.90
36384;DHT22;22418;51.210;6.976;2023-05-21T02:01:29;13.50;99.90
36384;DHT22;22418;51.210;6.976;2023-05-21T02:04:00;13.50;99.90
36384;DHT22;22418;51.210;6.976;2023-05-21T02:06:31;13.50;99.90
36384;DHT22;22418;51.210;6.976;2023-05-21T02:09:02;13.50;99.90
36384;DHT22;22418;51.210;6.976;2023-05-21T02:11:33;13.50;99.90
36384;DHT22;22418;51.210;6.976;2023-05-21T02:14:04;13.50;99.90
36384;DHT22;22418;51.210;6.976;2023-05-21T02:16:35;13.50;99.90
36384;DHT22;22418;51.210;6.976;2023-05-21T02:19:05;13.40;99.90
36384;DHT22;22418;51.210;6.976;2023-05-21T02:21:36;13.40;99.90
36384;DHT22;22418;51.210;6.976;2023-05-21T02:24:07;13.30;99.90
36384;DHT22;22418;51.210;6.976;2023-05-21T02:26:37;13.30;99.90
36384;DHT22;22418;51.210;6.976;2023-05-21T02:29:09;13.40;99.90
36384;DHT22;22418;51.210;6.976;2023-05-21T02:31:39;13.40;99.90
36384;DHT22;22418;51.210;6.976;2023-05-21T02:34:10;13.30;99.90
36384;DHT22;22418;51.210;6.976;2023-05-21T02:36:41;13.30;99.90
36384;DHT22;22418;51.210;6.976;2023-05-21T02:39:12;13.40;99.90
36384;DHT22;22418;51.210;6.976;2023-05-21T02:41:42;13.30;99.90
36384;DHT22;22418;51.210;6.976;2023-05-21T02:44:13;13.30;99.90
36384;DHT22;22418;51.210;6.976;2023-05-21T02:46:44;13.30;99.90
36384;DHT22;22418;51.210;6.976;2023-05-21T02:49:15;13.40;99.90
36384;DHT22;22418;51.210;6.976;2023-05-21T02:51:46;13.30;99.90
36384;DHT22;22418;51.210;6.976;2023-05-21T02:54:16;13.30;99.90
36384;DHT22;22418;51.210;6.976;2023-05-21T02:56:47;13.40;99.90
36384;DHT22;22418;51.210;6.976;2023-05-21T02:59:17;13.30;99.90
36384;DHT22;22418;51.210;6.976;2023-05-21T03:01:48;13.30;99.90
36384;DHT22;22418;51.210;6.976;2023-05-21T03:04:18;13.40;99.90
36384;DHT22;22418;51.210;6.976;2023-05-21T03:06:52;13.30;99.90
36384;DHT22;22418;51.210;6.976;2023-05-21T03:09:24;13.30;99.90
36384;DHT22;22418;51.210;6.976;2023-05-21T03:11:55;13.30;99.90
36384;DHT22;22418;51.210;6.976;2023-05-21T03:14:25;13.30;99.90
36384;DHT22;22418;51.210;6.976;2023-05-21T03:16:58;13.30;99.90
36384;DHT22;22418;51.210;6.976;2023-05-21T03:19:28;13.30;99.90
36384;DHT22;22418;51.210;6.976;2023-05-21T03:22:03;13.20;99.90
36384;DHT22;22418;51.210;6.976;2023-05-21T03:24:34;13.30;99.90
36384;DHT22;22418;51.210;6.976;2023-05-21T03:27:06;13.30;99.90
36384;DHT22;22418;51.210;6.976;2023-05-21T03:29:36;13.20;99.90
36384;DHT22;22418;51.210;6.976;2023-05-21T03:32:09;13.30;99.90
36384;DHT22;22418;51.210;6.976;2023-05-21T03:34:40;13.30;99.90
36384;DHT22;22418;51.210;6.976;2023-05-21T03:37:10;13.20;99.90
36384;DHT22;22418;51.210;6.976;2023-05-21T03:39:41;13.20;99.90
36384;DHT22;22418;51.210;6.976;2023-05-21T03:42:11;13.20;99.90
36384;DHT22;22418;51.210;6.976;2023-05-21T03:44:43;13.30;99.90
36384;DHT22;22418;51.210;6.976;2023-05-21T03:47:13;13.30;99.90
36384;DHT22;22418;51.210;6.976;2023-05-21T03:49:44;13.30;99.90
36384;DHT22;22418;51.210;6.976;2023-05-21T03:52:15;13.30;99.90
36384;DHT22;22418;51.210;6.976;2023-05-21T03:54:45;13.30;99.90
36384;DHT22;22418;51.210;6.976;2023-05-21T03:57:16;13.40;99.90
36384;DHT22;22418;51.210;6.976;2023-05-21T03:59:46;13.30;99.90
36384;DHT22;22418;51.210;6.976;2023-05-21T04:02:17;13.30;99.90
36384;DHT22;22418;51.210;6.976;2023-05-21T04:04:47;13.30;99.90
36384;DHT22;22418;51.210;6.976;2023-05-21T04:07:20;13.30;99.90
36384;DHT22;22418;51.210;6.976;2023-05-21T04:09:51;13.30;99.90
36384;DHT22;22418;51.210;6.976;2023-05-21T04:12:22;13.20;99.90
36384;DHT22;22418;51.210;6.976;2023-05-21T04:14:53;13.40;99.90
36384;DHT22;22418;51.210;6.976;2023-05-21T04:17:23;13.30;99.90
36384;DHT22;22418;51.210;6.976;2023-05-21T04:19:56;13.30;99.90
36384;DHT22;22418;51.210;6.976;2023-05-21T04:22:26;13.30;99.90
36384;DHT22;22418;51.210;6.976;2023-05-21T04:24:57;13.30;99.90
36384;DHT22;22418;51.210;6.976;2023-05-21T04:27:28;13.30;99.90
36384;DHT22;22418;51.210;6.976;2023-05-21T04:29:59;13.30;99.90
36384;DHT22;22418;51.210;6.976;2023-05-21T04:32:30;13.30;99.90
36384;DHT22;22418;51.210;6.976;2023-05-21T04:35:02;13.20;99.90
36384;DHT22;22418;51.210;6.976;2023-05-21T04:37:33;13.20;99.90
36384;DHT22;22418;51.210;6.976;2023-05-21T04:40:04;13.30;99.90
36384;DHT22;22418;51.210;6.976;2023-05-21T04:42:35;13.30;99.90
36384;DHT22;22418;51.210;6.976;2023-05-21T04:45:06;13.30;99.90
36384;DHT22;22418;51.210;6.976;2023-05-21T04:47:38;13.30;99.90
36384;DHT22;22418;51.210;6.976;2023-05-21T04:50:08;13.30;99.90
36384;DHT22;22418;51.210;6.976;2023-05-21T04:52:42;13.30;99.90
36384;DHT22;22418;51.210;6.976;2023-05-21T04:55:14;13.30;99.90
36384;DHT22;22418;51.210;6.976;2023-05-21T04:57:45;13.30;99.90
36384;DHT22;22418;51.210;6.976;2023-05-21T05:00:16;13.30;99.90
36384;DHT22;22418;51.210;6.976;2023-05-21T05:02:46;13.30;99.90
36384;DHT22;22418;51.210;6.976;2023-05-21T05:05:17;13.30;99.90
36384;DHT22;22418;51.210;6.976;2023-05-21T05:07:48;13.40;99.90
36384;DHT22;22418;51.210;6.976;2023-05-21T05:10:18;13.40;99.90
36384;DHT22;22418;51.210;6.976;2023-05-21T05:12:49;13.50;99.90
36384;DHT22;22418;51.210;6.976;2023-05-21T05:15:20;13.40;99.90
36384;DHT22;22418;51.210;6.976;2023-05-21T05:17:51;13.40;99.90
36384;DHT22;22418;51.210;6.976;2023-05-21T05:20:22;13.50;99.90
36384;DHT22;22418;51.210;6.976;2023-05-21T05:22:52;13.50;99.90
36384;DHT22;22418;51.210;6.976;2023-05-21T05:25:23;13.50;99.90
36384;DHT22;22418;51.210;6.976;2023-05-21T05:27:54;13.50;99.90
36384;DHT22;22418;51.210;6.976;2023-05-21T05:30:24;13.60;99.90
36384;DHT22;22418;51.210;6.976;2023-05-21T05:32:55;13.60;99.90
36384;DHT22;22418;51.210;6.976;2023-05-21T05:35:25;13.60;99.90
36384;DHT22;22418;51.210;6.976;2023-05-21T05:37:56;13.60;99.90
36384;DHT22;22418;51.210;6.976;2023-05-21T05:40:26;13.50;99.90
36384;DHT22;22418;51.210;6.976;2023-05-21T05:42:57;13.60;99.90
36384;DHT22;22418;51.210;6.976;2023-05-21T05:45:28;13.70;99.90
36384;DHT22;22418;51.210;6.976;2023-05-21T05:47:58;13.80;99.90
36384;DHT22;22418;51.210;6.976;2023-05-21T05:50:29;13.80;99.90
36384;DHT22;22418;51.210;6.976;2023-05-21T05:52:59;13.80;99.90
36384;DHT22;22418;51.210;6.976;2023-05-21T05:55:30;13.90;99.90
36384;DHT22;22418;51.210;6.976;2023-05-21T05:58:00;13.80;99.90
36384;DHT22;22418;51.210;6.976;2023-05-21T06:00:31;13.80;99.90
36384;DHT22;22418;51.210;6.976;2023-05-21T06:03:02;13.90;99.90
36384;DHT22;22418;51.210;6.976;2023-05-21T06:05:32;13.90;99.90
36384;DHT22;22418;51.210;6.976;2023-05-21T06:08:03;14.00;99.90
36384;DHT22;22418;51.210;6.976;2023-05-21T06:10:34;14.00;99.90
36384;DHT22;22418;51.210;6.976;2023-05-21T06:13:04;14.10;99.90
36384;DHT22;22418;51.210;6.976;2023-05-21T06:15:35;14.00;99.90
36384;DHT22;22418;51.210;6.976;2023-05-21T06:18:06;14.00;99.90
36384;DHT22;22418;51.210;6.976;2023-05-21T06:20:36;14.10;99.90
36384;DHT22;22418;51.210;6.976;2023-05-21T06:23:07;14.20;99.90
36384;DHT22;22418;51.210;6.976;2023-05-21T06:25:38;14.30;99.90
36384;DHT22;22418;51.210;6.976;2023-05-21T06:28:10;14.30;99.90
36384;DHT22;22418;51.210;6.976;2023-05-21T06:30:40;14.50;99.90
36384;DHT22;22418;51.210;6.976;2023-05-21T06:33:11;14.60;99.90
36384;DHT22;22418;51.210;6.976;2023-05-21T06:35:42;14.70;99.90
36384;DHT22;22418;51.210;6.976;2023-05-21T06:38:12;14.80;99.90
36384;DHT22;22418;51.210;6.976;2023-05-21T06:40:43;15.00;99.90
36384;DHT22;22418;51.210;6.976;2023-05-21T06:43:16;15.10;99.90
36384;DHT22;22418;51.210;6.976;2023-05-21T06:45:47;15.10;99.90
36384;DHT22;22418;51.210;6.976;2023-05-21T06:48:17;15.40;99.90
36384;DHT22;22418;51.210;6.976;2023-05-21T06:50:48;15.90;99.90
36384;DHT22;22418;51.210;6.976;2023-05-21T06:53:18;16.00;99.90
36384;DHT22;22418;51.210;6.976;2023-05-21T06:55:49;16.20;99.90
36384;DHT22;22418;51.210;6.976;2023-05-21T06:58:22;16.20;99.90
36384;DHT22;22418;51.210;6.976;2023-05-21T07:00:53;16.50;99.90
36384;DHT22;22418;51.210;6.976;2023-05-21T07:03:24;16.50;99.90
36384;DHT22;22418;51.210;6.976;2023-05-21T07:05:55;16.80;99.90
36384;DHT22;22418;51.210;6.976;2023-05-21T07:08:26;17.10;99.90
36384;DHT22;22418;51.210;6.976;2023-05-21T07:10:56;17.00;99.90
36384;DHT22;22418;51.210;6.976;2023-05-21T07:13:28;17.00;99.90
36384;DHT22;22418;51.210;6.976;2023-05-21T07:15:59;17.40;99.90
36384;DHT22;22418;51.210;6.976;2023-05-21T07:18:30;17.50;99.90
36384;DHT22;22418;51.210;6.976;2023-05-21T07:21:00;17.40;99.90
36384;DHT22;22418;51.210;6.976;2023-05-21T07:23:31;17.40;99.90
36384;DHT22;22418;51.210;6.976;2023-05-21T07:26:02;17.60;99.90
36384;DHT22;22418;51.210;6.976;2023-05-21T07:28:32;17.90;99.90
36384;DHT22;22418;51.210;6.976;2023-05-21T07:31:03;17.90;99.90
36384;DHT22;22418;51.210;6.976;2023-05-21T07:33:33;17.80;99.90
36384;DHT22;22418;51.210;6.976;2023-05-21T07:36:04;18.20;99.90
36384;DHT22;22418;51.210;6.976;2023-05-21T07:38:35;18.30;99.90
36384;DHT22;22418;51.210;6.976;2023-05-21T07:41:06;18.40;99.90
36384;DHT22;22418;51.210;6.976;2023-05-21T07:43:37;19.00;99.90
36384;DHT22;22418;51.210;6.976;2023-05-21T07:46:07;19.30;99.90
36384;DHT22;22418;51.210;6.976;2023-05-21T07:48:38;19.20;99.90
36384;DHT22;22418;51.210;6.976;2023-05-21T07:51:09;19.20;99.90
36384;DHT22;22418;51.210;6.976;2023-05-21T07:53:40;19.30;99.90
36384;DHT22;22418;51.210;6.976;2023-05-21T07:56:10;19.30;99.90
36384;DHT22;22418;51.210;6.976;2023-05-21T07:58:41;19.20;99.90
36384;DHT22;22418;51.210;6.976;2023-05-21T08:01:15;19.50;99.90
36384;DHT22;22418;51.210;6.976;2023-05-21T08:03:45;19.80;99.90
36384;DHT22;22418;51.210;6.976;2023-05-21T08:06:16;19.60;99.90
36384;DHT22;22418;51.210;6.976;2023-05-21T08:08:46;19.00;99.90
36384;DHT22;22418;51.210;6.976;2023-05-21T08:11:17;18.90;99.90
36384;DHT22;22418;51.210;6.976;2023-05-21T08:13:48;19.10;99.90
36384;DHT22;22418;51.210;6.976;2023-05-21T08:16:18;19.30;99.90
36384;DHT22;22418;51.210;6.976;2023-05-21T08:18:49;19.40;99.90
36384;DHT22;22418;51.210;6.976;2023-05-21T08:21:20;19.40;99.90
36384;DHT22;22418;51.210;6.976;2023-05-21T08:23:52;19.40;99.90
36384;DHT22;22418;51.210;6.976;2023-05-21T08:26:22;19.60;99.90
36384;DHT22;22418;51.210;6.976;2023-05-21T08:28:55;19.60;99.90
36384;DHT22;22418;51.210;6.976;2023-05-21T08:31:26;19.30;99.90
36384;DHT22;22418;51.210;6.976;2023-05-21T08:33:56;18.90;99.90
36384;DHT22;22418;51.210;6.976;2023-05-21T08:36:27;19.10;99.90
36384;DHT22;22418;51.210;6.976;2023-05-21T08:38:57;19.30;99.90
36384;DHT22;22418;51.210;6.976;2023-05-21T08:41:29;19.50;99.90
36384;DHT22;22418;51.210;6.976;2023-05-21T08:44:01;19.70;99.90
36384;DHT22;22418;51.210;6.976;2023-05-21T08:46:32;20.00;99.90
36384;DHT22;22418;51.210;6.976;2023-05-21T08:49:09;19.70;99.90
36384;DHT22;22418;51.210;6.976;2023-05-21T08:51:41;19.70;99.90
36384;DHT22;22418;51.210;6.976;2023-05-21T08:54:11;19.70;99.90
36384;DHT22;22418;51.210;6.976;2023-05-21T08:56:44;19.40;99.90
36384;DHT22;22418;51.210;6.976;2023-05-21T08:59:17;19.40;99.90
36384;DHT22;22418;51.210;6.976;2023-05-21T09:01:48;19.90;99.90
36384;DHT22;22418;51.210;6.976;2023-05-21T09:04:19;20.20;99.90
36384;DHT22;22418;51.210;6.976;2023-05-21T09:06:50;19.70;99.90
36384;DHT22;22418;51.210;6.976;2023-05-21T09:09:27;19.20;99.90
36384;DHT22;22418;51.210;6.976;2023-05-21T09:12:01;19.20;99.90
36384;DHT22;22418;51.210;6.976;2023-05-21T09:14:33;19.60;99.90
36384;DHT22;22418;51.210;6.976;2023-05-21T09:17:04;19.60;99.90
36384;DHT22;22418;51.210;6.976;2023-05-21T09:19:34;19.60;99.90
36384;DHT22;22418;51.210;6.976;2023-05-21T09:22:05;19.50;99.90
36384;DHT22;22418;51.210;6.976;2023-05-21T09:24:35;19.30;99.90
36384;DHT22;22418;51.210;6.976;2023-05-21T09:27:06;19.50;99.90
36384;DHT22;22418;51.210;6.976;2023-05-21T09:29:37;19.70;99.90
36384;DHT22;22418;51.210;6.976;2023-05-21T09:32:11;20.20;99.90
36384;DHT22;22418;51.210;6.976;2023-05-21T09:34:42;19.90;99.90
36384;DHT22;22418;51.210;6.976;2023-05-21T09:37:12;19.60;99.90
36384;DHT22;22418;51.210;6.976;2023-05-21T09:39:46;19.30;99.90
36384;DHT22;22418;51.210;6.976;2023-05-21T09:42:19;19.30;99.90
36384;DHT22;22418;51.210;6.976;2023-05-21T09:44:51;19.30;99.90
36384;DHT22;22418;51.210;6.976;2023-05-21T09:47:22;19.20;99.90
36384;DHT22;22418;51.210;6.976;2023-05-21T09:49:57;19.20;99.90
36384;DHT22;22418;51.210;6.976;2023-05-21T09:52:27;19.60;99.90
36384;DHT22;22418;51.210;6.976;2023-05-21T09:54:59;19.60;99.90
36384;DHT22;22418;51.210;6.976;2023-05-21T09:57:30;19.40;99.90
36384;DHT22;22418;51.210;6.976;2023-05-21T10:00:01;19.40;99.90
36384;DHT22;22418;51.210;6.976;2023-05-21T10:02:36;19.50;99.90
36384;DHT22;22418;51.210;6.976;2023-05-21T10:05:08;19.60;99.90
36384;DHT22;22418;51.210;6.976;2023-05-21T10:07:47;19.70;99.90
36384;DHT22;22418;51.210;6.976;2023-05-21T10:10:19;19.80;99.90
36384;DHT22;22418;51.210;6.976;2023-05-21T10:13:05;19.70;99.90
36384;DHT22;22418;51.210;6.976;2023-05-21T10:15:47;19.70;99.90
36384;DHT22;22418;51.210;6.976;2023-05-21T10:18:19;19.90;99.90
36384;DHT22;22418;51.210;6.976;2023-05-21T10:20:52;19.90;99.90
36384;DHT22;22418;51.210;6.976;2023-05-21T10:23:23;19.80;99.90
36384;DHT22;22418;51.210;6.976;2023-05-21T10:25:55;19.70;99.90
36384;DHT22;22418;51.210;6.976;2023-05-21T10:28:27;19.80;99.90
36384;DHT22;22418;51.210;6.976;2023-05-21T10:30:58;19.80;99.90
36384;DHT22;22418;51.210;6.976;2023-05-21T10:33:29;19.90;99.90
36384;DHT22;22418;51.210;6.976;2023-05-21T10:36:01;20.30;99.90
36384;DHT22;22418;51.210;6.976;2023-05-21T10:38:32;20.20;99.90
36384;DHT22;22418;51.210;6.976;2023-05-21T10:41:03;20.00;99.90
36384;DHT22;22418;51.210;6.976;2023-05-21T10:47:07;20.00;99.90
36384;DHT22;22418;51.210;6.976;2023-05-21T10:55:33;19.90;99.90
36384;DHT22;22418;51.210;6.976;2023-05-21T11:00:42;20.10;99.90
36384;DHT22;22418;51.210;6.976;2023-05-21T11:03:13;20.20;99.90
36384;DHT22;22418;51.210;6.976;2023-05-21T11:05:55;20.50;99.90
36384;DHT22;22418;51.210;6.976;2023-05-21T11:08:27;20.50;99.90
36384;DHT22;22418;51.210;6.976;2023-05-21T11:11:02;20.40;99.90
36384;DHT22;22418;51.210;6.976;2023-05-21T11:13:46;20.20;99.90
36384;DHT22;22418;51.210;6.976;2023-05-21T11:16:22;20.10;99.90
36384;DHT22;22418;51.210;6.976;2023-05-21T11:18:57;20.30;99.90
36384;DHT22;22418;51.210;6.976;2023-05-21T11:21:29;20.40;99.90
36384;DHT22;22418;51.210;6.976;2023-05-21T11:24:04;20.30;99.90
36384;DHT22;22418;51.210;6.976;2023-05-21T11:29:18;20.40;99.90
36384;DHT22;22418;51.210;6.976;2023-05-21T11:31:58;20.30;99.90
36384;DHT22;22418;51.210;6.976;2023-05-21T11:34:45;20.10;99.90
36384;DHT22;22418;51.210;6.976;2023-05-21T11:39:47;20.30;99.90
36384;DHT22;22418;51.210;6.976;2023-05-21T11:45:04;20.30;99.90
36384;DHT22;22418;51.210;6.976;2023-05-21T11:47:35;20.30;99.90
36384;DHT22;22418;51.210;6.976;2023-05-21T11:50:11;20.20;99.90
36384;DHT22;22418;51.210;6.976;2023-05-21T11:52:43;20.10;99.90
36384;DHT22;22418;51.210;6.976;2023-05-21T11:55:13;20.30;99.90
36384;DHT22;22418;51.210;6.976;2023-05-21T11:57:45;20.30;99.90
36384;DHT22;22418;51.210;6.976;2023-05-21T12:00:17;20.40;99.90
36384;DHT22;22418;51.210;6.976;2023-05-21T12:02:50;20.40;99.90
36384;DHT22;22418;51.210;6.976;2023-05-21T12:05:21;20.50;99.90
36384;DHT22;22418;51.210;6.976;2023-05-21T12:07:51;20.50;99.90
36384;DHT22;22418;51.210;6.976;2023-05-21T12:10:23;20.40;99.90
36384;DHT22;22418;51.210;6.976;2023-05-21T12:12:54;20.40;99.90
36384;DHT22;22418;51.210;6.976;2023-05-21T12:15:25;20.40;99.90
36384;DHT22;22418;51.210;6.976;2023-05-21T12:17:56;20.50;99.90
36384;DHT22;22418;51.210;6.976;2023-05-21T12:20:27;20.50;99.90
36384;DHT22;22418;51.210;6.976;2023-05-21T12:22:58;20.30;99.90
36384;DHT22;22418;51.210;6.976;2023-05-21T12:25:29;20.40;99.90
36384;DHT22;22418;51.210;6.976;2023-05-21T12:28:01;20.50;99.90
36384;DHT22;22418;51.210;6.976;2023-05-21T12:30:32;20.70;99.90
36384;DHT22;22418;51.210;6.976;2023-05-21T12:33:03;20.60;99.90
36384;DHT22;22418;51.210;6.976;2023-05-21T12:35:36;20.80;99.90
36384;DHT22;22418;51.210;6.976;2023-05-21T12:38:06;20.90;99.90
36384;DHT22;22418;51.210;6.976;2023-05-21T12:40:38;21.00;99.90
36384;DHT22;22418;51.210;6.976;2023-05-21T12:43:10;21.10;99.90
36384;DHT22;22418;51.210;6.976;2023-05-21T12:45:41;21.00;99.90
36384;DHT22;22418;51.210;6.976;2023-05-21T12:48:12;20.80;99.90
36384;DHT22;22418;51.210;6.976;2023-05-21T12:50:43;20.80;99.90
36384;DHT22;22418;51.210;6.976;2023-05-21T12:53:13;20.80;99.90
36384;DHT22;22418;51.210;6.976;2023-05-21T12:55:44;20.80;99.90
36384;DHT22;22418;51.210;6.976;2023-05-21T12:58:14;20.80;99.90
36384;DHT22;22418;51.210;6.976;2023-05-21T13:00:46;20.70;99.90
36384;DHT22;22418;51.210;6.976;2023-05-21T13:03:17;20.60;99.90
36384;DHT22;22418;51.210;6.976;2023-05-21T13:05:56;20.50;99.90
36384;DHT22;22418;51.210;6.976;2023-05-21T13:08:27;20.50;99.90
36384;DHT22;22418;51.210;6.976;2023-05-21T13:10:57;20.60;99.90
36384;DHT22;22418;51.210;6.976;2023-05-21T13:13:28;20.60;99.90
36384;DHT22;22418;51.210;6.976;2023-05-21T13:15:59;20.60;99.90
36384;DHT22;22418;51.210;6.976;2023-05-21T13:18:30;20.70;99.90
36384;DHT22;22418;51.210;6.976;2023-05-21T13:21:01;20.70;99.90
36384;DHT22;22418;51.210;6.976;2023-05-21T13:23:32;20.60;99.90
36384;DHT22;22418;51.210;6.976;2023-05-21T13:26:02;20.70;99.90
36384;DHT22;22418;51.210;6.976;2023-05-21T13:28:33;20.60;99.90
36384;DHT22;22418;51.210;6.976;2023-05-21T13:31:03;20.70;99.90
36384;DHT22;22418;51.210;6.976;2023-05-21T13:33:34;20.80;99.90
36384;DHT22;22418;51.210;6.976;2023-05-21T13:36:05;20.80;99.90
36384;DHT22;22418;51.210;6.976;2023-05-21T13:38:35;20.70;99.90
36384;DHT22;22418;51.210;6.976;2023-05-21T13:41:06;20.70;99.90
36384;DHT22;22418;51.210;6.976;2023-05-21T13:43:36;20.70;99.90
36384;DHT22;22418;51.210;6.976;2023-05-21T13:46:07;20.70;99.90
36384;DHT22;22418;51.210;6.976;2023-05-21T13:48:38;20.80;99.90
36384;DHT22;22418;51.210;6.976;2023-05-21T13:51:09;20.80;99.90
36384;DHT22;22418;51.210;6.976;2023-05-21T13:53:40;20.70;99.90
36384;DHT22;22418;51.210;6.976;2023-05-21T13:56:10;20.60;99.90
36384;DHT22;22418;51.210;6.976;2023-05-21T13:58:41;20.60;99.90
36384;DHT22;22418;51.210;6.976;2023-05-21T14:01:11;20.70;99.90
36384;DHT22;22418;51.210;6.976;2023-05-21T14:03:42;20.60;99.90
36384;DHT22;22418;51.210;6.976;2023-05-21T14:06:13;20.60;99.90
36384;DHT22;22418;51.210;6.976;2023-05-21T14:08:43;20.70;99.90
36384;DHT22;22418;51.210;6.976;2023-05-21T14:11:14;20.60;99.90
36384;DHT22;22418;51.210;6.976;2023-05-21T14:13:45;20.70;99.90
36384;DHT22;22418;51.210;6.976;2023-05-21T14:16:15;20.80;99.90
36384;DHT22;22418;51.210;6.976;2023-05-21T14:18:46;20.80;99.90
36384;DHT22;22418;51.210;6.976;2023-05-21T14:21:16;20.80;99.90
36384;DHT22;22418;51.210;6.976;2023-05-21T14:23:48;20.90;99.90
36384;DHT22;22418;51.210;6.976;2023-05-21T14:26:18;20.90;99.90
36384;DHT22;22418;51.210;6.976;2023-05-21T14:28:49;20.90;99.90
36384;DHT22;22418;51.210;6.976;2023-05-21T14:31:20;20.90;99.90
36384;DHT22;22418;51.210;6.976;2023-05-21T14:33:54;20.90;99.90
36384;DHT22;22418;51.210;6.976;2023-05-21T14:36:24;21.00;99.90
36384;DHT22;22418;51.210;6.976;2023-05-21T14:38:55;21.00;99.90
36384;DHT22;22418;51.210;6.976;2023-05-21T14:41:26;21.00;99.90
36384;DHT22;22418;51.210;6.976;2023-05-21T14:43:56;21.00;99.90
36384;DHT22;22418;51.210;6.976;2023-05-21T14:46:27;21.00;99.90
36384;DHT22;22418;51.210;6.976;2023-05-21T14:48:58;21.00;99.90
36384;DHT22;22418;51.210;6.976;2023-05-21T14:51:29;21.10;99.90
36384;DHT22;22418;51.210;6.976;2023-05-21T14:54:00;21.10;99.90
36384;DHT22;22418;51.210;6.976;2023-05-21T14:56:31;21.20;99.90
36384;DHT22;22418;51.210;6.976;2023-05-21T14:59:01;21.20;99.90
36384;DHT22;22418;51.210;6.976;2023-05-21T15:01:32;21.30;99.90
36384;DHT22;22418;51.210;6.976;2023-05-21T15:04:03;21.30;99.90
36384;DHT22;22418;51.210;6.976;2023-05-21T15:06:34;21.30;99.90
36384;DHT22;22418;51.210;6.976;2023-05-21T15:09:04;21.30;99.90
36384;DHT22;22418;51.210;6.976;2023-05-21T15:11:35;21.30;99.90
36384;DHT22;22418;51.210;6.976;2023-05-21T15:14:05;21.30;99.90
36384;DHT22;22418;51.210;6.976;2023-05-21T15:16:36;21.30;99.90
36384;DHT22;22418;51.210;6.976;2023-05-21T15:19:06;21.30;99.90
36384;DHT22;22418;51.210;6.976;2023-05-21T15:21:37;21.40;99.90
36384;DHT22;22418;51.210;6.976;2023-05-21T15:24:08;21.30;99.90
36384;DHT22;22418;51.210;6.976;2023-05-21T15:26:38;21.30;99.90
36384;DHT22;22418;51.210;6.976;2023-05-21T15:29:09;21.40;99.90
36384;DHT22;22418;51.210;6.976;2023-05-21T15:31:39;21.40;99.90
36384;DHT22;22418;51.210;6.976;2023-05-21T15:34:10;21.40;99.90
36384;DHT22;22418;51.210;6.976;2023-05-21T15:36:42;21.40;99.90
36384;DHT22;22418;51.210;6.976;2023-05-21T15:39:13;21.40;99.90
36384;DHT22;22418;51.210;6.976;2023-05-21T15:41:43;21.50;99.90
36384;DHT22;22418;51.210;6.976;2023-05-21T15:44:14;21.40;99.90
36384;DHT22;22418;51.210;6.976;2023-05-21T15:46:45;21.40;99.90
36384;DHT22;22418;51.210;6.976;2023-05-21T15:49:16;21.40;99.90
36384;DHT22;22418;51.210;6.976;2023-05-21T15:51:47;21.40;99.90
36384;DHT22;22418;51.210;6.976;2023-05-21T15:54:18;21.50;99.90
36384;DHT22;22418;51.210;6.976;2023-05-21T15:56:49;21.50;99.90
36384;DHT22;22418;51.210;6.976;2023-05-21T15:59:19;21.50;99.90
36384;DHT22;22418;51.210;6.976;2023-05-21T16:01:50;21.50;99.90
36384;DHT22;22418;51.210;6.976;2023-05-21T16:04:21;21.50;99.90
36384;DHT22;22418;51.210;6.976;2023-05-21T16:06:51;21.50;99.90
36384;DHT22;22418;51.210;6.976;2023-05-21T16:09:22;21.50;99.90
36384;DHT22;22418;51.210;6.976;2023-05-21T16:11:52;21.50;99.90
36384;DHT22;22418;51.210;6.976;2023-05-21T16:14:23;21.50;99.90
36384;DHT22;22418;51.210;6.976;2023-05-21T16:16:54;21.50;99.90